Time;durP1;ratioP1;P1;durP2;ratioP2;P2;SDS_P1;SDS_P2;PMS_P1;PMS_P2;Temp;Humidity;BMP_temperature;BMP_pressure;BME280_temperature;BME280_humidity;BME280_pressure;Samples;Min_cycle;Max_cycle;Signal;HPM_P1;HPM_P2
2024/03/12 00:00:15;;;;;;;4.20;2.80;;;;;;;12.42;48.76;97003.66;5012846;28;20505;-71
2024/03/12 00:02:44;;;;;;;2.80;2.60;;;;;;;12.29;49.05;97000.72;5013994;28;20584;-71
2024/03/12 00:05:11;;;;;;;3.27;2.97;;;;;;;12.11;49.88;97004.38;5042186;28;20422;-72
2024/03/12 00:07:37;;;;;;;4.50;3.63;;;;;;;12.13;49.35;97010.28;5039389;28;20434;-71
2024/03/12 00:10:08;;;;;;;4.80;3.33;;;;;;;12.06;49.72;97008.47;5042214;28;20957;-71
2024/03/12 00:12:36;;;;;;;3.93;3.63;;;;;;;12.04;49.91;97008.66;5035365;28;20267;-69
2024/03/12 00:15:05;;;;;;;4.97;3.80;;;;;;;12.10;49.61;97012.44;5034128;28;20805;-71
2024/03/12 00:17:32;;;;;;;5.03;3.40;;;;;;;12.13;49.38;97006.84;5037068;28;20790;-70
2024/03/12 00:19:59;;;;;;;5.20;3.60;;;;;;;12.11;49.50;96999.13;5034360;28;20541;-71
2024/03/12 00:22:25;;;;;;;5.97;3.40;;;;;;;12.04;49.06;97013.91;5039216;28;20449;-72
2024/03/12 00:24:50;;;;;;;5.57;3.73;;;;;;;12.07;49.54;96997.81;5029563;28;20417;-70
2024/03/12 00:27:16;;;;;;;5.60;4.10;;;;;;;11.98;49.51;97010.16;5041912;28;20618;-72
2024/03/12 00:29:42;;;;;;;3.87;3.47;;;;;;;11.97;49.86;97012.91;5031746;28;20183;-71
2024/03/12 00:32:07;;;;;;;3.47;3.17;;;;;;;11.95;49.89;97020.13;5043809;28;20422;-72
2024/03/12 00:34:34;;;;;;;4.20;3.80;;;;;;;11.86;49.81;97011.44;5046742;28;20180;-68
2024/03/12 00:37:00;;;;;;;5.30;3.67;;;;;;;11.73;49.77;97019.00;5037481;28;20568;-69
2024/03/12 00:39:25;;;;;;;3.73;3.10;;;;;;;11.76;49.92;97011.59;5030855;28;20442;-71
2024/03/12 00:41:51;;;;;;;3.83;3.43;;;;;;;11.73;49.99;97021.63;5028638;28;20524;-70
2024/03/12 00:44:17;;;;;;;5.70;3.77;;;;;;;11.70;50.27;97012.25;5041140;28;20190;-71
2024/03/12 00:46:42;;;;;;;5.87;3.63;;;;;;;11.65;50.61;97014.56;5032734;28;20573;-71
2024/03/12 00:49:09;;;;;;;4.23;3.83;;;;;;;11.60;50.81;97022.09;5034684;28;20290;-72
2024/03/12 00:51:34;;;;;;;5.03;4.07;;;;;;;11.64;51.00;97015.53;5029745;28;20203;-71
2024/03/12 00:54:01;;;;;;;4.47;3.97;;;;;;;11.71;50.80;97023.56;5031141;28;20477;-70
2024/03/12 00:56:27;;;;;;;4.53;3.83;;;;;;;11.67;50.57;97020.47;5029854;28;20183;-69
2024/03/12 00:58:53;;;;;;;5.30;3.80;;;;;;;11.69;50.65;97013.25;5031117;28;21012;-71
2024/03/12 01:01:20;;;;;;;3.97;3.67;;;;;;;11.72;50.36;97019.97;5030991;28;20295;-71
2024/03/12 01:03:46;;;;;;;4.13;3.30;;;;;;;11.68;50.93;97025.53;5011253;28;20188;-68
2024/03/12 01:06:13;;;;;;;4.77;4.07;;;;;;;11.62;50.93;97031.47;5020435;28;20426;-70
2024/03/12 01:08:39;;;;;;;5.10;3.63;;;;;;;11.63;51.07;97034.88;5010623;28;20467;-70
2024/03/12 01:11:06;;;;;;;4.63;3.93;;;;;;;11.58;50.80;97018.81;5026258;28;20469;-70
2024/03/12 01:13:33;;;;;;;5.50;3.97;;;;;;;11.59;50.60;97016.03;5035833;28;21208;-70
2024/03/12 01:15:59;;;;;;;5.00;4.20;;;;;;;11.53;50.28;97028.00;5042917;28;20423;-70
2024/03/12 01:18:24;;;;;;;4.10;3.70;;;;;;;11.42;49.92;97030.94;5036562;28;20449;-71
2024/03/12 01:20:50;;;;;;;5.13;4.23;;;;;;;11.38;49.66;97021.75;5030156;28;20669;-67
2024/03/12 01:23:16;;;;;;;5.90;3.90;;;;;;;11.24;50.15;97032.84;5032333;28;20289;-71
2024/03/12 01:25:41;;;;;;;4.60;3.63;;;;;;;11.15;50.37;97034.66;5029866;28;20430;-69
2024/03/12 01:28:10;;;;;;;7.13;3.47;;;;;;;11.09;50.66;97030.84;5033709;28;20203;-73
2024/03/12 01:30:36;;;;;;;6.30;3.93;;;;;;;10.97;50.87;97038.22;5036888;28;20324;-70
2024/03/12 01:33:02;;;;;;;4.23;3.80;;;;;;;11.04;50.77;97038.41;5033828;28;20419;-71
2024/03/12 01:35:30;;;;;;;7.13;4.03;;;;;;;11.06;50.71;97039.06;5026086;28;20496;-70
2024/03/12 01:37:57;;;;;;;5.03;4.00;;;;;;;10.93;50.85;97043.94;5022484;28;20530;-69
2024/03/12 01:40:23;;;;;;;7.00;3.80;;;;;;;10.95;51.32;97039.34;5034581;28;20446;-71
2024/03/12 01:42:50;;;;;;;4.30;3.50;;;;;;;10.97;51.94;97037.38;5037110;28;20472;-69
2024/03/12 01:45:17;;;;;;;8.50;3.27;;;;;;;11.06;51.88;97041.69;5039921;28;20439;-70
2024/03/12 01:47:45;;;;;;;3.80;3.43;;;;;;;11.12;51.83;97041.03;5026106;28;20464;-71
2024/03/12 01:50:11;;;;;;;3.37;3.07;;;;;;;11.19;51.60;97046.47;5028518;28;20517;-69
2024/03/12 01:52:36;;;;;;;3.67;3.30;;;;;;;11.19;51.56;97047.28;5039497;28;20517;-68
2024/03/12 01:55:02;;;;;;;3.80;3.37;;;;;;;11.17;51.75;97048.41;5028579;28;20472;-71
2024/03/12 01:57:27;;;;;;;3.30;3.00;;;;;;;11.16;51.60;97050.22;5039095;28;20228;-71
2024/03/12 01:59:53;;;;;;;3.70;3.07;;;;;;;11.18;51.81;97050.91;5032239;28;20598;-70
2024/03/12 02:02:18;;;;;;;3.10;2.87;;;;;;;11.14;51.33;97052.19;5039601;28;20310;-69
2024/03/12 02:04:44;;;;;;;4.03;3.50;;;;;;;11.14;51.91;97057.44;5041175;28;20217;-69
2024/03/12 02:07:11;;;;;;;3.03;2.60;;;;;;;11.10;51.73;97058.72;5038615;28;20210;-69
2024/03/12 02:09:38;;;;;;;3.63;3.07;;;;;;;11.01;52.35;97057.06;5028562;28;20286;-70
2024/03/12 02:12:04;;;;;;;4.70;3.00;;;;;;;11.00;52.18;97066.75;5027970;28;21126;-69
2024/03/12 02:14:30;;;;;;;4.00;2.90;;;;;;;11.03;52.40;97057.72;5035098;28;20916;-72
2024/03/12 02:16:56;;;;;;;5.10;3.27;;;;;;;11.00;51.82;97055.41;5030527;28;20488;-71
2024/03/12 02:19:21;;;;;;;4.70;3.33;;;;;;;11.01;52.23;97059.69;5039212;28;20257;-70
2024/03/12 02:21:48;;;;;;;4.97;2.70;;;;;;;11.02;52.24;97053.47;5035170;28;20469;-72
2024/03/12 02:24:13;;;;;;;4.93;3.10;;;;;;;10.95;52.19;97058.50;5033070;28;20186;-70
2024/03/12 02:26:39;;;;;;;2.97;2.77;;;;;;;10.82;51.77;97060.75;5031619;28;20481;-69
2024/03/12 02:29:07;;;;;;;2.97;2.67;;;;;;;10.71;51.70;97059.25;5013869;28;20198;-69
2024/03/12 02:31:34;;;;;;;3.27;2.83;;;;;;;10.61;51.93;97067.22;5036955;28;20218;-70
2024/03/12 02:34:00;;;;;;;3.70;3.20;;;;;;;10.59;51.59;97066.56;5027763;28;20423;-70
2024/03/12 02:36:25;;;;;;;3.20;2.80;;;;;;;10.58;51.93;97064.91;5026489;28;21016;-72
2024/03/12 02:38:50;;;;;;;6.37;3.03;;;;;;;10.60;51.55;97078.69;5030579;28;20196;-69
2024/03/12 02:41:16;;;;;;;3.97;3.10;;;;;;;10.58;51.76;97078.00;5031118;28;20222;-71
2024/03/12 02:43:41;;;;;;;3.10;2.67;;;;;;;10.54;51.33;97087.16;5030476;28;20237;-73
2024/03/12 02:46:10;;;;;;;3.70;2.97;;;;;;;10.54;51.71;97085.38;5027514;28;20266;-72
2024/03/12 02:48:36;;;;;;;3.60;3.10;;;;;;;10.44;51.66;97085.47;5031990;28;20269;-69
2024/03/12 02:51:01;;;;;;;4.77;3.43;;;;;;;10.32;51.95;97088.47;5027781;28;20427;-70
2024/03/12 02:53:27;;;;;;;5.67;2.47;;;;;;;10.36;52.06;97085.38;5032734;28;20183;-70
2024/03/12 02:55:52;;;;;;;4.33;3.40;;;;;;;10.22;52.88;97086.75;5029693;28;20218;-68
2024/03/12 02:58:25;;;;;;;3.13;2.80;;;;;;;10.29;53.34;97084.34;5027503;28;20241;-71
2024/03/12 03:00:50;;;;;;;3.20;2.93;;;;;;;10.27;53.28;97089.75;5028866;28;20184;-69
2024/03/12 03:03:16;;;;;;;3.07;2.63;;;;;;;10.37;52.63;97091.44;5027612;28;20991;-70
2024/03/12 03:05:43;;;;;;;3.60;3.03;;;;;;;10.39;51.81;97086.91;5035598;28;20236;-71
2024/03/12 03:08:10;;;;;;;3.03;2.83;;;;;;;10.35;52.08;97088.97;5032509;28;20912;-72
2024/03/12 03:10:36;;;;;;;3.33;3.03;;;;;;;10.32;52.15;97091.09;5027376;28;20431;-71
2024/03/12 03:13:01;;;;;;;2.80;2.60;;;;;;;10.34;52.46;97091.72;5026526;28;20433;-73
2024/03/12 03:15:26;;;;;;;3.40;3.10;;;;;;;10.31;52.73;97095.50;5030194;28;20276;-70
2024/03/12 03:17:52;;;;;;;3.00;2.80;;;;;;;10.28;53.57;97090.56;5034705;28;20213;-69
2024/03/12 03:20:18;;;;;;;5.43;3.00;;;;;;;10.24;53.50;97095.28;5028731;28;20676;-69
2024/03/12 03:22:44;;;;;;;4.23;2.90;;;;;;;10.27;53.42;97094.97;5033669;28;20227;-72
2024/03/12 03:25:14;;;;;;;9.27;3.23;;;;;;;10.30;53.98;97089.44;5032442;28;20294;-69
2024/03/12 03:27:39;;;;;;;4.73;3.50;;;;;;;10.32;54.00;97088.47;5027696;28;20558;-69
2024/03/12 03:30:07;;;;;;;4.20;3.40;;;;;;;10.40;53.69;97094.59;5028446;28;20433;-71
2024/03/12 03:32:35;;;;;;;3.50;3.20;;;;;;;10.37;53.57;97089.66;5028470;28;20184;-70
2024/03/12 03:35:03;;;;;;;4.00;2.90;;;;;;;10.44;53.43;97084.66;5027257;28;20430;-70
2024/03/12 03:37:34;;;;;;;3.60;3.00;;;;;;;10.44;53.75;97092.50;5037510;28;20551;-70
2024/03/12 03:40:01;;;;;;;3.67;3.23;;;;;;;10.46;53.72;97095.78;5028914;28;20518;-69
2024/03/12 03:42:26;;;;;;;3.20;2.70;;;;;;;10.50;54.01;97099.75;5026909;28;20573;-72
2024/03/12 03:44:52;;;;;;;14.53;3.50;;;;;;;10.53;53.92;97103.84;5033384;28;20909;-70
2024/03/12 03:47:17;;;;;;;3.43;3.07;;;;;;;10.51;53.51;97101.38;5035010;28;20668;-71
2024/03/12 03:49:46;;;;;;;4.10;3.20;;;;;;;10.52;54.11;97108.28;5031632;28;20581;-70
2024/03/12 03:52:11;;;;;;;3.60;2.90;;;;;;;10.48;53.95;97106.94;5045259;28;20811;-70
2024/03/12 03:54:37;;;;;;;4.70;4.10;;;;;;;10.52;54.24;97108.28;5032788;28;20517;-70
2024/03/12 03:57:03;;;;;;;3.97;2.73;;;;;;;10.52;54.42;97123.19;5039097;28;20194;-70
2024/03/12 03:59:30;;;;;;;5.80;3.27;;;;;;;10.57;54.34;97119.13;5033963;28;20819;-71
2024/03/12 04:01:56;;;;;;;6.20;3.10;;;;;;;10.58;54.20;97123.41;5037978;28;20480;-69
2024/03/12 04:04:22;;;;;;;3.13;2.83;;;;;;;10.66;54.26;97119.16;5034152;28;20464;-71
2024/03/12 04:06:48;;;;;;;3.70;2.90;;;;;;;10.67;54.18;97126.88;5038921;28;20188;-71
2024/03/12 04:09:15;;;;;;;4.73;3.07;;;;;;;10.68;53.87;97125.09;5031427;28;20982;-70
2024/03/12 04:11:41;;;;;;;3.00;2.70;;;;;;;10.71;54.19;97128.22;5029552;28;20184;-69
2024/03/12 04:14:09;;;;;;;3.67;2.97;;;;;;;10.73;53.96;97121.03;5033032;28;20454;-70
2024/03/12 04:16:34;;;;;;;3.20;2.57;;;;;;;10.80;53.99;97115.97;5041768;28;20536;-70
2024/03/12 04:19:00;;;;;;;5.67;3.30;;;;;;;10.81;53.91;97122.88;5033742;28;20455;-71
2024/03/12 04:21:26;;;;;;;3.30;3.00;;;;;;;10.79;54.01;97137.91;5022754;28;20216;-70
2024/03/12 04:23:52;;;;;;;3.23;2.43;;;;;;;10.81;53.84;97135.97;5031510;28;20333;-70
2024/03/12 04:26:19;;;;;;;4.80;2.97;;;;;;;10.87;53.85;97130.09;5029198;28;20513;-71
2024/03/12 04:28:45;;;;;;;2.87;2.57;;;;;;;10.93;53.72;97138.31;5038046;28;20233;-71
2024/03/12 04:31:11;;;;;;;3.70;2.60;;;;;;;10.93;53.73;97135.69;5031445;28;20538;-71
2024/03/12 04:33:36;;;;;;;3.87;2.37;;;;;;;10.92;53.85;97134.88;5026132;28;20183;-69
2024/03/12 04:36:08;;;;;;;3.07;2.73;;;;;;;10.89;53.79;97146.50;5030067;28;20191;-70
2024/03/12 04:38:33;;;;;;;4.20;2.60;;;;;;;10.95;53.54;97146.84;5035649;28;20221;-71
2024/03/12 04:40:59;;;;;;;3.83;2.83;;;;;;;10.97;53.80;97150.97;5029630;28;20434;-71
2024/03/12 04:43:25;;;;;;;4.33;2.53;;;;;;;11.03;53.68;97146.91;5036915;28;20200;-68
2024/03/12 04:45:50;;;;;;;5.50;2.90;;;;;;;11.06;53.52;97143.97;5032482;28;20426;-69
2024/03/12 04:48:16;;;;;;;7.37;3.40;;;;;;;11.03;53.49;97154.75;5033317;28;20223;-69
2024/03/12 04:50:41;;;;;;;2.87;2.63;;;;;;;11.02;53.54;97150.50;5028996;28;20211;-70
2024/03/12 04:53:07;;;;;;;3.40;2.60;;;;;;;11.05;53.46;97156.25;5031426;28;20680;-70
2024/03/12 04:55:37;;;;;;;2.40;2.20;;;;;;;10.94;53.49;97163.56;5027818;28;20271;-71
2024/03/12 04:58:04;;;;;;;3.30;2.53;;;;;;;10.98;53.47;97162.25;5025953;28;20442;-71
2024/03/12 05:00:30;;;;;;;3.00;2.63;;;;;;;10.95;53.53;97176.50;5039046;28;20469;-70
2024/03/12 05:02:55;;;;;;;2.80;2.27;;;;;;;10.95;53.45;97175.72;5028908;28;20462;-69
2024/03/12 05:05:21;;;;;;;4.20;2.87;;;;;;;11.05;53.57;97184.28;5039472;28;20805;-70
2024/03/12 05:07:50;;;;;;;2.80;2.50;;;;;;;11.14;53.44;97185.97;5039739;28;20730;-70
2024/03/12 05:10:16;;;;;;;3.33;2.77;;;;;;;11.21;53.52;97191.41;5030966;28;20259;-69
2024/03/12 05:12:42;;;;;;;3.17;2.60;;;;;;;11.27;53.19;97192.56;5039080;28;20950;-70
2024/03/12 05:15:09;;;;;;;5.00;2.90;;;;;;;11.27;53.02;97203.91;5037646;28;20441;-70
2024/03/12 05:17:38;;;;;;;5.10;3.30;;;;;;;11.29;53.04;97201.13;5040786;28;20426;-71
2024/03/12 05:20:10;;;;;;;5.77;2.80;;;;;;;11.33;52.81;97198.00;5027679;28;20427;-69
2024/03/12 05:22:36;;;;;;;4.47;3.10;;;;;;;11.35;52.81;97203.94;5029997;28;20908;-70
2024/03/12 05:25:03;;;;;;;4.13;3.00;;;;;;;11.40;53.20;97216.59;5028341;28;20435;-70
2024/03/12 05:27:37;;;;;;;3.23;2.80;;;;;;;11.42;53.09;97219.88;5026866;28;20441;-70
2024/03/12 05:30:10;;;;;;;7.37;3.83;;;;;;;11.37;52.73;97222.97;5026255;28;20464;-69
2024/03/12 05:32:41;;;;;;;6.40;4.30;;;;;;;11.37;52.78;97224.75;5033768;28;20422;-70
2024/03/12 05:35:16;;;;;;;7.57;5.10;;;;;;;11.33;53.03;97226.06;5023329;28;20485;-68
2024/03/12 05:38:01;;;;;;;6.90;3.87;;;;;;;11.41;53.25;97230.50;5027284;28;20479;-70
2024/03/12 05:40:29;;;;;;;3.50;2.87;;;;;;;11.44;53.15;97232.81;5030721;28;20421;-70
2024/03/12 05:48:22;;;;;;;6.50;3.57;;;;;;;11.51;52.56;97229.41;5031084;28;20445;-71
2024/03/12 05:50:48;;;;;;;3.20;2.90;;;;;;;11.47;52.65;97230.72;5031993;28;20782;-69
2024/03/12 05:53:13;;;;;;;3.40;3.07;;;;;;;11.47;52.77;97238.56;5035663;28;20190;-70
2024/03/12 05:55:41;;;;;;;7.13;4.17;;;;;;;11.47;52.87;97248.25;5026320;28;20186;-70
2024/03/12 05:58:07;;;;;;;8.37;3.70;;;;;;;11.47;52.91;97248.25;5036764;28;20274;-69
2024/03/12 06:00:33;;;;;;;5.73;3.90;;;;;;;11.47;52.96;97249.06;5034103;28;20438;-70
2024/03/12 06:02:59;;;;;;;5.07;4.10;;;;;;;11.49;53.03;97251.56;5031919;28;20527;-70
2024/03/12 06:05:26;;;;;;;5.00;3.63;;;;;;;11.50;53.02;97251.41;5039024;28;20183;-70
2024/03/12 06:07:52;;;;;;;8.97;3.17;;;;;;;11.51;53.26;97257.47;5035767;28;20457;-71
2024/03/12 06:10:18;;;;;;;7.27;3.70;;;;;;;11.52;53.10;97256.50;5027008;28;20477;-67
2024/03/12 06:12:43;;;;;;;4.23;3.83;;;;;;;11.55;52.99;97265.84;5037326;28;20430;-67
2024/03/12 06:15:09;;;;;;;9.87;3.70;;;;;;;11.55;53.38;97260.63;5036054;28;20215;-69
2024/03/12 06:17:36;;;;;;;6.90;3.57;;;;;;;11.59;53.22;97261.94;5034337;28;20179;-70
2024/03/12 06:20:02;;;;;;;5.93;3.70;;;;;;;11.59;53.42;97256.69;5026978;28;20765;-71
2024/03/12 06:22:27;;;;;;;5.73;3.53;;;;;;;11.63;53.47;97258.00;5039215;28;20449;-69
2024/03/12 06:24:53;;;;;;;6.10;3.50;;;;;;;11.67;53.32;97267.22;5039412;28;20444;-68
2024/03/12 06:27:18;;;;;;;4.90;4.03;;;;;;;11.63;53.16;97260.63;5027401;28;20183;-70
2024/03/12 06:29:49;;;;;;;4.47;4.03;;;;;;;11.66;53.18;97263.75;5027862;28;20294;-68
2024/03/12 06:32:17;;;;;;;9.03;3.27;;;;;;;11.63;53.47;97273.75;5028078;28;20187;-70
2024/03/12 06:34:43;;;;;;;3.60;3.20;;;;;;;11.64;53.36;97273.63;5000572;28;20998;-69
2024/03/12 06:37:09;;;;;;;3.63;3.33;;;;;;;11.67;52.94;97268.03;5030300;28;20430;-68
2024/03/12 06:39:35;;;;;;;3.63;3.20;;;;;;;11.65;53.18;97274.44;5033267;28;20492;-70
2024/03/12 06:42:02;;;;;;;5.03;3.07;;;;;;;11.64;53.13;97278.03;5027657;28;20211;-70
2024/03/12 06:44:31;;;;;;;3.13;2.70;;;;;;;11.64;53.08;97281.50;5033528;28;20440;-68
2024/03/12 06:46:57;;;;;;;4.43;2.93;;;;;;;11.71;53.28;97284.31;5030608;28;20484;-68
2024/03/12 06:49:24;;;;;;;3.33;3.00;;;;;;;11.70;53.49;97285.28;5027292;28;20443;-69
2024/03/12 06:51:50;;;;;;;8.30;2.97;;;;;;;11.64;53.59;97288.53;5027447;28;20270;-70
2024/03/12 06:54:16;;;;;;;3.20;2.20;;;;;;;11.68;53.60;97292.50;5026881;28;20430;-71
2024/03/12 06:56:46;;;;;;;4.10;2.70;;;;;;;11.51;53.95;97289.78;5031527;28;20445;-70
2024/03/12 06:59:14;;;;;;;4.43;3.30;;;;;;;11.67;53.68;97299.53;5038500;28;20206;-71
2024/03/12 07:01:41;;;;;;;2.90;2.63;;;;;;;11.73;53.74;97294.66;5043659;28;20462;-70
2024/03/12 07:04:10;;;;;;;3.10;2.80;;;;;;;11.80;53.17;97301.75;5043097;28;20907;-71
2024/03/12 07:06:36;;;;;;;5.50;2.80;;;;;;;11.76;53.39;97295.16;5042494;28;20762;-70
2024/03/12 07:09:08;;;;;;;2.80;2.60;;;;;;;11.80;53.37;97304.38;5032887;28;20451;-70
2024/03/12 07:11:38;;;;;;;3.40;2.90;;;;;;;11.88;53.50;97300.13;5025455;28;20454;-70
2024/03/12 07:14:12;;;;;;;3.27;2.80;;;;;;;11.91;53.15;97291.94;5029998;28;21135;-70
2024/03/12 07:16:41;;;;;;;6.13;2.90;;;;;;;11.95;53.21;97303.78;5044456;28;20427;-70
2024/03/12 07:19:08;;;;;;;4.17;3.03;;;;;;;11.96;53.11;97308.06;5050599;28;20511;-70
2024/03/12 07:21:34;;;;;;;3.20;2.90;;;;;;;11.91;53.14;97305.88;5049501;28;20791;-70
2024/03/12 07:24:00;;;;;;;10.30;2.90;;;;;;;11.93;53.72;97305.72;5043418;28;20426;-70
2024/03/12 07:26:26;;;;;;;3.43;2.50;;;;;;;11.96;53.57;97305.44;5032345;28;20617;-69
2024/03/12 07:28:52;;;;;;;5.53;2.60;;;;;;;12.00;53.53;97306.75;5039829;28;20203;-70
2024/03/12 07:31:17;;;;;;;2.50;2.30;;;;;;;11.95;53.34;97303.78;5031648;28;20982;-70
2024/03/12 07:33:43;;;;;;;4.17;2.60;;;;;;;11.88;53.69;97302.75;5025978;28;20562;-69
2024/03/12 07:36:10;;;;;;;7.07;2.50;;;;;;;11.94;53.56;97312.63;5031966;28;20187;-69
2024/03/12 07:38:38;;;;;;;3.70;2.63;;;;;;;11.97;53.28;97315.75;5042195;28;20229;-70
2024/03/12 07:41:08;;;;;;;2.30;2.10;;;;;;;11.80;53.68;97319.28;5029840;28;20717;-70
2024/03/12 07:43:35;;;;;;;2.83;2.27;;;;;;;11.87;53.48;97319.47;5049186;28;20472;-70
2024/03/12 07:46:02;;;;;;;6.23;3.50;;;;;;;11.90;53.55;97316.53;5041194;28;20445;-71
2024/03/12 07:48:28;;;;;;;3.30;2.40;;;;;;;11.91;53.15;97326.06;5032718;28;20450;-70
2024/03/12 07:50:55;;;;;;;4.23;2.90;;;;;;;11.92;53.41;97318.03;5030622;28;20426;-69
2024/03/12 07:53:22;;;;;;;3.30;3.00;;;;;;;11.98;53.14;97319.22;5039472;28;20181;-68
2024/03/12 07:55:53;;;;;;;5.77;2.00;;;;;;;11.89;53.29;97328.88;5039134;28;20484;-68
2024/03/12 07:58:19;;;;;;;1.97;1.73;;;;;;;11.91;53.11;97334.75;5041064;28;20556;-69
2024/03/12 08:00:45;;;;;;;2.90;1.70;;;;;;;11.93;53.42;97337.25;5036259;28;20445;-69
2024/03/12 08:03:13;;;;;;;1.60;1.50;;;;;;;11.79;52.89;97336.84;5030376;28;20476;-68
2024/03/12 08:05:41;;;;;;;2.13;1.57;;;;;;;11.95;53.05;97340.53;5030161;28;20179;-70
2024/03/12 08:08:07;;;;;;;2.50;1.80;;;;;;;11.95;53.21;97330.03;5033676;28;20458;-71
2024/03/12 08:10:33;;;;;;;3.03;1.60;;;;;;;11.90;52.83;97345.44;5037195;28;20443;-69
2024/03/12 08:12:59;;;;;;;1.90;1.70;;;;;;;11.84;53.06;97339.00;5036382;28;20418;-69
2024/03/12 08:15:26;;;;;;;6.30;1.50;;;;;;;11.79;53.38;97336.00;5033713;28;20439;-69
2024/03/12 08:17:51;;;;;;;1.70;1.60;;;;;;;11.59;53.87;97345.94;5038969;28;20807;-70
2024/03/12 08:20:18;;;;;;;2.67;2.10;;;;;;;11.74;53.36;97356.69;5030466;28;20441;-69
2024/03/12 08:22:45;;;;;;;2.27;1.60;;;;;;;11.78;53.67;97358.84;5031449;28;20207;-69
2024/03/12 08:25:10;;;;;;;1.80;1.70;;;;;;;11.83;53.74;97353.13;5029861;28;20430;-69
2024/03/12 08:27:36;;;;;;;5.37;2.00;;;;;;;11.94;53.78;97352.84;5029261;28;20431;-71
2024/03/12 08:30:02;;;;;;;2.77;1.90;;;;;;;11.98;53.85;97356.00;5033847;28;20180;-70
2024/03/12 08:32:29;;;;;;;3.33;1.97;;;;;;;11.97;53.84;97359.59;5027889;28;20457;-71
2024/03/12 08:34:54;;;;;;;2.30;2.10;;;;;;;11.83;53.72;97353.97;5029827;28;20957;-71
2024/03/12 08:37:22;;;;;;;2.27;1.77;;;;;;;11.77;53.86;97359.81;5027926;28;20434;-68
2024/03/12 08:39:49;;;;;;;2.43;2.23;;;;;;;11.72;54.00;97364.69;5039109;28;20203;-69
2024/03/12 08:42:15;;;;;;;2.43;2.23;;;;;;;11.66;54.39;97362.72;5030302;28;20642;-70
2024/03/12 08:44:41;;;;;;;2.10;1.90;;;;;;;11.67;54.39;97364.38;5037223;28;20447;-70
2024/03/12 08:47:08;;;;;;;1.70;1.60;;;;;;;11.83;54.09;97364.47;5037481;28;20203;-69
2024/03/12 08:49:33;;;;;;;1.83;1.63;;;;;;;11.97;53.87;97367.47;5035954;28;20344;-69
2024/03/12 08:51:59;;;;;;;1.90;1.80;;;;;;;12.06;53.54;97368.34;5029264;28;20427;-71
2024/03/12 08:54:25;;;;;;;1.73;1.63;;;;;;;12.13;53.19;97370.19;5029881;28;20646;-69
2024/03/12 08:56:51;;;;;;;2.23;1.60;;;;;;;12.13;52.87;97372.81;5040592;28;20758;-70
2024/03/12 08:59:16;;;;;;;1.77;1.67;;;;;;;12.09;52.68;97376.75;5037351;28;20211;-70
2024/03/12 09:01:43;;;;;;;1.40;1.30;;;;;;;12.11;53.10;97371.34;5032977;28;20937;-69
2024/03/12 09:04:08;;;;;;;2.70;1.77;;;;;;;12.10;53.32;97381.00;5029922;28;20180;-69
2024/03/12 09:06:34;;;;;;;1.60;1.50;;;;;;;12.08;52.82;97388.25;5041724;28;20497;-71
2024/03/12 09:09:00;;;;;;;1.90;1.80;;;;;;;12.09;53.14;97384.63;5033553;28;20214;-68
2024/03/12 09:11:26;;;;;;;1.70;1.60;;;;;;;12.27;52.95;97386.34;5027611;28;20664;-70
2024/03/12 09:13:52;;;;;;;1.90;1.70;;;;;;;12.38;52.64;97386.03;5034447;28;20467;-70
2024/03/12 09:16:17;;;;;;;3.10;1.80;;;;;;;12.41;52.73;97382.28;5036105;28;20434;-69
2024/03/12 09:18:43;;;;;;;4.37;2.47;;;;;;;12.39;52.55;97379.81;5028659;28;20306;-70
2024/03/12 09:21:12;;;;;;;4.30;2.10;;;;;;;12.39;52.15;97385.06;5027735;28;20192;-71
2024/03/12 09:23:38;;;;;;;2.00;1.87;;;;;;;12.42;52.13;97382.13;5030182;28;20712;-71
2024/03/12 09:26:05;;;;;;;2.50;2.13;;;;;;;12.43;51.96;97380.31;5035146;28;20429;-71
2024/03/12 09:28:31;;;;;;;3.23;1.93;;;;;;;12.19;52.32;97388.94;5028907;28;20970;-69
2024/03/12 09:30:56;;;;;;;2.10;1.90;;;;;;;12.34;52.20;97399.66;5030725;28;20430;-70
2024/03/12 09:33:25;;;;;;;4.00;2.33;;;;;;;12.06;52.89;97390.19;5029935;28;20418;-69
2024/03/12 09:35:51;;;;;;;2.80;2.53;;;;;;;12.25;52.64;97391.75;5026898;28;20763;-70
2024/03/12 09:38:16;;;;;;;3.40;2.47;;;;;;;12.44;52.71;97388.06;5041278;28;20478;-71
2024/03/12 09:40:42;;;;;;;5.80;2.77;;;;;;;12.48;52.59;97392.97;5025707;28;20998;-70
2024/03/12 09:43:10;;;;;;;3.13;2.10;;;;;;;12.46;52.50;97400.22;5028663;28;20280;-69
2024/03/12 09:45:36;;;;;;;2.60;2.03;;;;;;;12.53;52.75;97402.06;5035246;28;20691;-71
2024/03/12 09:48:01;;;;;;;2.37;1.90;;;;;;;12.54;52.48;97395.78;5016444;28;20461;-69
2024/03/12 09:50:29;;;;;;;3.97;2.67;;;;;;;12.59;52.02;97400.59;5033577;28;20190;-67
2024/03/12 09:52:55;;;;;;;4.70;2.00;;;;;;;12.55;51.71;97399.25;5028367;28;20171;-71
2024/03/12 09:55:22;;;;;;;4.30;2.50;;;;;;;12.52;52.07;97407.44;5031912;28;20477;-70
2024/03/12 09:57:47;;;;;;;4.33;2.10;;;;;;;12.63;51.90;97409.78;5028019;28;21020;-68
2024/03/12 10:00:19;;;;;;;2.80;2.50;;;;;;;12.54;52.02;97410.75;5034499;28;20434;-68
2024/03/12 10:02:50;;;;;;;4.03;2.60;;;;;;;12.61;52.12;97417.00;5027635;28;20282;-69
2024/03/12 10:05:22;;;;;;;2.70;2.20;;;;;;;12.60;51.95;97418.81;5035402;28;20529;-69
2024/03/12 10:08:06;;;;;;;4.53;2.90;;;;;;;12.59;51.83;97414.53;5040275;28;20426;-69
2024/03/12 10:10:40;;;;;;;4.77;2.40;;;;;;;12.55;51.91;97421.09;5023822;28;20453;-68
2024/03/12 10:13:24;;;;;;;3.53;2.77;;;;;;;12.53;52.60;97422.25;5033336;28;20449;-71
2024/03/12 10:16:03;;;;;;;4.80;3.10;;;;;;;12.62;52.20;97418.66;5013282;28;20529;-69
2024/03/12 10:18:37;;;;;;;3.93;2.80;;;;;;;12.74;52.41;97432.34;5029675;28;20478;-69
2024/03/12 10:21:03;;;;;;;4.13;3.10;;;;;;;12.83;52.14;97417.41;5026478;28;20482;-68
2024/03/12 10:23:30;;;;;;;2.80;2.47;;;;;;;12.86;51.86;97427.56;5032314;28;20466;-68
2024/03/12 10:26:07;;;;;;;2.87;2.40;;;;;;;12.74;52.18;97425.25;5027219;28;20434;-69
2024/03/12 10:28:33;;;;;;;2.87;2.30;;;;;;;12.28;53.33;97425.63;5026564;28;20480;-69
2024/03/12 10:31:08;;;;;;;2.93;2.60;;;;;;;12.34;52.77;97439.94;5029973;28;20937;-68
2024/03/12 10:33:36;;;;;;;2.50;2.30;;;;;;;12.57;52.64;97432.28;5034022;28;20433;-70
2024/03/12 10:36:02;;;;;;;2.30;2.10;;;;;;;12.40;53.24;97438.47;5032169;28;20422;-69
2024/03/12 10:38:32;;;;;;;3.53;2.27;;;;;;;12.54;52.66;97437.03;5039423;28;20538;-70
2024/03/12 10:40:57;;;;;;;2.70;1.87;;;;;;;12.55;52.39;97436.88;5026503;28;20427;-69
2024/03/12 10:43:26;;;;;;;2.20;2.00;;;;;;;12.65;52.53;97435.94;5034985;28;20472;-69
2024/03/12 10:45:55;;;;;;;4.67;2.20;;;;;;;12.60;52.18;97429.34;5036416;28;20202;-70
2024/03/12 10:48:21;;;;;;;3.70;1.83;;;;;;;12.78;52.03;97425.78;5027951;28;20458;-69
2024/03/12 10:50:48;;;;;;;2.17;1.80;;;;;;;12.87;52.03;97431.84;5030033;28;20525;-69
2024/03/12 10:53:13;;;;;;;1.80;1.70;;;;;;;12.94;51.80;97427.59;5037161;28;20195;-69
2024/03/12 10:55:40;;;;;;;1.50;1.40;;;;;;;12.95;51.59;97437.16;5037109;28;20512;-71
2024/03/12 10:58:06;;;;;;;1.87;1.40;;;;;;;12.94;51.50;97438.13;5036281;28;20194;-71
2024/03/12 11:00:35;;;;;;;2.20;1.53;;;;;;;12.90;51.66;97439.44;5035901;28;20514;-70
2024/03/12 11:03:01;;;;;;;1.90;1.50;;;;;;;12.94;51.41;97443.41;5041150;28;20544;-68
2024/03/12 11:05:27;;;;;;;2.50;2.10;;;;;;;12.80;51.11;97438.75;5036285;28;20855;-71
2024/03/12 11:07:57;;;;;;;2.27;2.00;;;;;;;12.84;51.15;97440.09;5042774;28;20193;-70
2024/03/12 11:10:32;;;;;;;3.90;3.07;;;;;;;12.82;51.33;97436.78;5027629;28;20427;-69
2024/03/12 11:13:01;;;;;;;3.67;2.60;;;;;;;12.96;51.17;97443.22;5032743;28;20425;-71
2024/03/12 11:15:27;;;;;;;3.93;3.00;;;;;;;13.00;51.32;97444.56;5031060;28;20447;-72
2024/03/12 11:17:53;;;;;;;3.23;2.90;;;;;;;12.98;51.16;97439.44;5046043;28;20426;-71
2024/03/12 11:20:22;;;;;;;4.17;2.80;;;;;;;13.02;50.89;97442.59;5033176;28;20184;-71
2024/03/12 11:22:50;;;;;;;3.53;2.87;;;;;;;13.01;50.65;97444.38;5031032;28;20466;-68
2024/03/12 11:25:38;;;;;;;9.00;2.37;;;;;;;13.08;50.76;97447.19;5030220;28;20422;-69
2024/03/12 11:28:20;;;;;;;2.80;2.10;;;;;;;13.10;50.43;97441.78;5023399;28;21020;-69
2024/03/12 11:31:07;;;;;;;1.53;1.43;;;;;;;13.17;50.19;97450.66;5030810;28;20517;-68
2024/03/12 11:33:38;;;;;;;2.30;1.70;;;;;;;13.17;49.87;97451.47;5038943;28;20511;-71
2024/03/12 11:36:32;;;;;;;2.83;1.70;;;;;;;13.22;50.01;97445.75;5027133;28;20428;-69
2024/03/12 11:39:11;;;;;;;2.00;1.43;;;;;;;13.17;50.14;97451.47;5028326;28;20466;-70